Time;durP1;ratioP1;P1;durP2;ratioP2;P2;SDS_P1;SDS_P2;PMS_P1;PMS_P2;Temp;Humidity;BMP_temperature;BMP_pressure;BME280_temperature;BME280_humidity;BME280_pressure;Samples;Min_cycle;Max_cycle;Signal;HPM_P1;HPM_P2
2023/01/23 00:04:20;;;;;;;37.00;18.30;;;;;;;0.67;100.00;102412.80;217568;1299;109821;-92
2023/01/23 00:10:21;;;;;;;35.80;18.20;;;;;;;0.69;100.00;102424.42;217205;1299;139049;-93
2023/01/23 01:13:28;;;;;;;;;;;;;;;;;;;;;
2023/01/23 01:47:12;;;;;;;32.20;16.50;;;;;;;0.57;100.00;102469.75;217557;1298;106643;-91
2023/01/23 01:53:05;;;;;;;34.00;15.80;;;;;;;0.56;100.00;102474.30;216172;1305;138868;-89
2023/01/23 02:10:17;;;;;;;;;;;;;;;;;;;;;
2023/01/23 02:16:18;;;;;;;31.90;13.80;;;;;;;0.52;100.00;102474.27;217498;1298;139524;-92
2023/01/23 02:28:18;;;;;;;28.70;14.90;;;;;;;0.52;100.00;102483.43;217750;1296;138988;-91
2023/01/23 02:34:22;;;;;;;34.30;15.40;;;;;;;0.52;100.00;102485.48;217705;1296;140328;-90
2023/01/23 02:45:31;;;;;;;28.90;13.80;;;;;;;0.52;100.00;102482.95;217699;1297;140181;-91
2023/01/23 03:14:07;;;;;;;29.90;13.00;;;;;;;0.46;100.00;102484.75;217346;1296;139068;-92
2023/01/23 03:20:04;;;;;;;29.40;13.10;;;;;;;0.44;100.00;102474.38;217326;1295;140006;-91
2023/01/23 03:31:04;;;;;;;;;;;;;;;;;;;;;
2023/01/23 03:55:06;;;;;;;30.80;15.30;;;;;;;0.37;100.00;102502.76;217372;1297;138887;-92
2023/01/23 04:01:15;;;;;;;;;;;;;;;;;;;;;
2023/01/23 04:07:08;;;;;;;32.70;16.00;;;;;;;0.36;100.00;102524.27;217406;1297;139515;-91
2023/01/23 04:13:18;;;;;;;;;;;;;;;;;;;;;
2023/01/23 04:19:18;;;;;;;30.50;15.40;;;;;;;0.37;100.00;102543.07;216928;1298;140254;-89
2023/01/23 04:25:09;;;;;;;;;;;;;;;;;;;;;
2023/01/23 04:31:20;;;;;;;39.50;19.90;;;;;;;0.37;100.00;102555.70;216510;1299;140414;-91
2023/01/23 04:37:22;;;;;;;29.90;15.90;;;;;;;0.36;100.00;102556.29;217115;1299;138904;-90
2023/01/23 04:43:24;;;;;;;29.60;15.40;;;;;;;0.36;100.00;102555.42;216523;1299;138896;-91
2023/01/23 04:49:27;;;;;;;28.50;13.70;;;;;;;0.36;100.00;102562.73;216668;1299;139045;-90
2023/01/23 04:55:29;;;;;;;38.00;17.10;;;;;;;0.36;100.00;102568.37;217310;1299;138939;-92
2023/01/23 05:01:52;;;;;;;27.40;14.90;;;;;;;0.35;100.00;102564.46;216845;1298;139601;-93
2023/01/23 05:07:35;;;;;;;32.80;15.70;;;;;;;0.34;100.00;102566.39;217043;1299;139082;-91
2023/01/23 05:13:33;;;;;;;;;;;;;;;;;;;;;
2023/01/23 05:19:39;;;;;;;34.90;16.40;;;;;;;0.34;100.00;102566.34;216646;1299;140802;-93
2023/01/23 05:25:40;;;;;;;36.10;16.80;;;;;;;0.34;100.00;102577.06;217038;1298;140322;-91
2023/01/23 05:31:21;;;;;;;;;;;;;;;;;;;;;
2023/01/23 05:37:19;;;;;;;;;;;;;;;;;;;;;
2023/01/23 05:49:15;;;;;;;;;;;;;;;;;;;;;
2023/01/23 05:55:09;;;;;;;;;;;;;;;;;;;;;
2023/01/23 06:01:09;;;;;;;;;;;;;;;;;;;;;
2023/01/23 06:07:10;;;;;;;37.40;17.90;;;;;;;0.31;100.00;102628.16;217209;1299;138972;-89
2023/01/23 06:12:44;;;;;;;;;;;;;;;;;;;;;
2023/01/23 06:18:47;;;;;;;39.90;19.10;;;;;;;0.29;100.00;102638.20;213338;1299;5361443;-91
2023/01/23 06:24:13;;;;;;;37.20;18.10;;;;;;;0.31;100.00;102647.12;217228;1299;139551;-91
2023/01/23 06:30:10;;;;;;;37.20;18.50;;;;;;;0.33;100.00;102647.80;216521;1299;140989;-89
2023/01/23 06:36:34;;;;;;;41.80;21.40;;;;;;;0.34;100.00;102657.73;216886;1298;138931;-90
2023/01/23 06:42:19;;;;;;;43.80;19.40;;;;;;;0.34;100.00;102667.52;216384;1299;139215;-90
2023/01/23 06:48:13;;;;;;;37.00;17.20;;;;;;;0.36;100.00;102684.02;217245;1299;138869;-90
2023/01/23 06:54:06;;;;;;;;;;;;;;;;;;;;;
2023/01/23 07:00:08;;;;;;;33.70;16.30;;;;;;;0.43;100.00;102697.20;216717;1298;139556;-91
2023/01/23 07:05:56;;;;;;;36.30;18.40;;;;;;;0.47;100.00;102702.01;217114;1298;139055;-90
2023/01/23 07:12:00;;;;;;;36.00;17.70;;;;;;;0.45;100.00;102703.67;216458;1299;139003;-90
2023/01/23 07:17:54;;;;;;;;;;;;;;;;;;;;;
2023/01/23 07:23:34;;;;;;;;;;;;;;;;;;;;;
2023/01/23 07:29:36;;;;;;;34.50;16.10;;;;;;;0.50;100.00;102712.12;216594;1298;140079;-90
2023/01/23 07:35:37;;;;;;;34.10;17.50;;;;;;;0.47;100.00;102705.10;217164;1298;105131;-91
2023/01/23 07:41:39;;;;;;;39.30;17.30;;;;;;;0.45;100.00;102705.52;217032;1299;139013;-91
2023/01/23 07:47:23;;;;;;;;;;;;;;;;;;;;;
2023/01/23 07:53:17;;;;;;;37.40;17.60;;;;;;;0.50;100.00;102697.66;217003;1299;139988;-90
2023/01/23 11:36:24;;;;;;;46.80;22.20;;;;;;;1.56;100.00;102758.05;216572;1299;138910;-86
2023/01/23 11:42:16;;;;;;;;;;;;;;;;;;;;;
2023/01/23 11:48:47;;;;;;;52.80;23.40;;;;;;;1.61;100.00;102744.77;216609;1299;138949;-85
2023/01/23 11:54:57;;;;;;;50.80;23.70;;;;;;;1.60;100.00;102747.86;216387;1299;139308;-84
2023/01/23 12:01:01;;;;;;;55.10;25.20;;;;;;;1.63;100.00;102749.35;215631;1299;140113;-84
2023/01/23 12:06:32;;;;;;;52.90;25.70;;;;;;;1.67;100.00;102745.84;216636;1299;109874;-83
2023/01/23 12:12:50;;;;;;;51.60;23.30;;;;;;;1.65;100.00;102743.06;215968;1302;139115;-84
2023/01/23 12:19:02;;;;;;;;;;;;;;;;;;;;;
2023/01/23 12:24:56;;;;;;;;;;;;;;;;;;;;;
2023/01/23 12:31:11;;;;;;;55.80;26.30;;;;;;;1.71;100.00;102746.15;216097;1299;139093;-85
2023/01/23 12:37:06;;;;;;;61.80;26.40;;;;;;;1.68;100.00;102746.08;216474;1302;97200;-87
2023/01/23 12:43:14;;;;;;;52.20;24.00;;;;;;;1.59;100.00;102742.00;215953;1302;139231;-85
2023/01/23 12:49:27;;;;;;;93.30;48.10;;;;;;;1.51;100.00;102738.63;216011;1300;139565;-84
2023/01/23 12:55:29;;;;;;;107.30;56.60;;;;;;;1.54;100.00;102735.61;216589;1300;96814;-83
2023/01/23 13:01:35;;;;;;;81.50;43.00;;;;;;;1.57;100.00;102738.02;215673;1299;138952;-84
2023/01/23 13:07:36;;;;;;;66.60;35.60;;;;;;;1.59;100.00;102741.94;216535;1301;96169;-83
2023/01/23 13:13:36;;;;;;;66.80;29.20;;;;;;;1.56;100.00;102739.86;216034;1299;139136;-85
2023/01/23 13:25:46;;;;;;;60.40;26.50;;;;;;;1.47;100.00;102747.12;216443;1300;138598;-86
2023/01/23 13:31:45;;;;;;;;;;;;;;;;;;;;;
2023/01/23 13:38:06;;;;;;;56.40;26.30;;;;;;;1.35;100.00;102737.91;216755;1299;96095;-85
2023/01/23 13:44:28;;;;;;;;;;;;;;;;;;;;;
2023/01/23 13:50:23;;;;;;;60.30;29.30;;;;;;;1.26;100.00;102737.41;215595;1299;139182;-84
2023/01/23 14:08:45;;;;;;;69.00;30.50;;;;;;;1.14;100.00;102733.73;216737;1299;95876;-84
2023/01/23 14:20:41;;;;;;;65.50;30.30;;;;;;;1.18;100.00;102747.82;215941;1299;139358;-85
2023/01/23 14:32:18;;;;;;;;;;;;;;;;;;;;;
2023/01/23 14:38:27;;;;;;;77.40;35.20;;;;;;;1.18;100.00;102749.27;216339;1299;138691;-85
2023/01/23 14:44:29;;;;;;;67.60;30.70;;;;;;;1.21;100.00;102751.73;216410;1299;138910;-84
2023/01/23 14:50:30;;;;;;;67.70;30.60;;;;;;;1.22;100.00;102752.57;216141;1298;139639;-84
2023/01/23 14:56:29;;;;;;;;;;;;;;;;;;;;;
2023/01/23 15:02:33;;;;;;;70.70;32.20;;;;;;;1.20;100.00;102761.77;215951;1298;139093;-84
2023/01/23 15:08:32;;;;;;;;;;;;;;;;;;;;;
2023/01/23 15:14:37;;;;;;;86.00;35.10;;;;;;;1.13;100.00;102771.19;216496;1299;139816;-83
2023/01/23 15:20:40;;;;;;;78.50;34.10;;;;;;;1.09;100.00;102773.92;216041;1298;141445;-86
2023/01/23 15:32:55;;;;;;;85.60;37.10;;;;;;;1.06;100.00;102787.52;216303;1299;139061;-86
2023/01/23 15:38:58;;;;;;;75.30;32.70;;;;;;;1.07;100.00;102800.86;216720;1299;96874;-85
2023/01/23 15:44:50;;;;;;;75.20;31.60;;;;;;;1.06;100.00;102802.91;216551;1298;138827;-84
2023/01/23 15:50:49;;;;;;;;;;;;;;;;;;;;;
2023/01/23 15:56:52;;;;;;;67.50;31.30;;;;;;;1.06;100.00;102809.80;216509;1299;138864;-85
2023/01/23 16:02:56;;;;;;;88.10;36.80;;;;;;;1.02;100.00;102806.13;216050;1299;138775;-85
2023/01/23 16:08:57;;;;;;;81.60;35.20;;;;;;;1.03;100.00;102804.34;216445;1300;96093;-85
2023/01/23 16:14:59;;;;;;;92.10;38.30;;;;;;;1.01;100.00;102809.81;216260;1299;138250;-85
2023/01/23 16:21:03;;;;;;;76.70;32.70;;;;;;;0.98;100.00;102815.37;216003;1299;139165;-84
2023/01/23 16:27:00;;;;;;;76.10;33.10;;;;;;;0.96;100.00;102810.73;216788;1299;95931;-84
2023/01/23 16:32:41;;;;;;;;;;;;;;;0.93;100.00;102806.03;215993;1298;139138;-85
2023/01/23 16:44:44;;;;;;;70.50;29.90;;;;;;;0.95;100.00;102815.81;216114;1299;281014;-87
2023/01/23 16:50:45;;;;;;;74.00;33.00;;;;;;;0.94;100.00;102822.20;216146;1298;139889;-85
2023/01/23 16:56:49;;;;;;;80.90;34.40;;;;;;;0.93;100.00;102825.28;216521;1299;139255;-84
2023/01/23 17:02:51;;;;;;;;;;;;;;;;;;;;;
2023/01/23 17:09:01;;;;;;;86.50;36.30;;;;;;;0.92;100.00;102834.42;216499;1298;138720;-84
2023/01/23 17:15:05;;;;;;;80.90;32.10;;;;;;;0.92;100.00;102839.86;216636;1299;139324;-84
2023/01/23 17:27:17;;;;;;;85.90;34.10;;;;;;;0.93;100.00;102846.77;216454;1299;96165;-84
2023/01/23 17:33:06;;;;;;;73.40;31.80;;;;;;;0.93;100.00;102842.69;215897;1298;138783;-85
2023/01/23 17:39:29;;;;;;;78.90;33.70;;;;;;;0.94;100.00;102838.95;216174;1298;139297;-84
2023/01/23 17:44:53;;;;;;;;;;;;;;;;;;;;;
2023/01/23 17:51:01;;;;;;;77.80;33.70;;;;;;;0.94;100.00;102848.77;216162;1298;139273;-85
2023/01/23 17:57:02;;;;;;;105.40;46.50;;;;;;;0.97;100.00;102850.81;216728;1298;138933;-85
2023/01/23 18:03:01;;;;;;;;;;;;;;;;;;;;;
2023/01/23 18:09:04;;;;;;;85.90;36.20;;;;;;;0.93;100.00;102849.52;216035;1299;139138;-85
2023/01/23 18:15:02;;;;;;;;;;;;;;;;;;;;;
2023/01/23 18:20:57;;;;;;;;;;;;;;;;;;;;;
2023/01/23 18:27:04;;;;;;;81.40;36.00;;;;;;;0.99;100.00;102844.11;216538;1299;139756;-85
2023/01/23 18:33:12;;;;;;;;;;;;;;;;;;;;;
2023/01/23 18:39:22;;;;;;;;;;;;;;;;;;;;;
2023/01/23 18:45:31;;;;;;;92.20;42.60;;;;;;;1.02;100.00;102844.95;216782;1300;111517;-84
2023/01/23 18:51:53;;;;;;;108.80;42.70;;;;;;;0.99;100.00;102853.48;216110;1298;139085;-84
2023/01/23 18:58:00;;;;;;;92.40;42.00;;;;;;;0.96;100.00;102850.85;216843;1299;111655;-86
2023/01/23 19:04:19;;;;;;;77.20;36.00;;;;;;;0.94;100.00;102849.86;216248;1299;140379;-85
2023/01/23 19:10:21;;;;;;;90.40;40.90;;;;;;;0.97;100.00;102851.30;216200;1298;138924;-85
2023/01/23 19:16:23;;;;;;;76.80;34.40;;;;;;;0.97;100.00;102849.89;216836;1299;109654;-86
2023/01/23 19:22:25;;;;;;;70.90;31.00;;;;;;;0.96;100.00;102853.40;216279;1299;139808;-85
2023/01/23 19:28:29;;;;;;;72.00;31.60;;;;;;;0.96;100.00;102854.65;216578;1298;111799;-85
2023/01/23 19:40:32;;;;;;;66.60;31.60;;;;;;;0.94;100.00;102860.27;216204;1299;139181;-86
2023/01/23 19:46:58;;;;;;;71.50;31.90;;;;;;;0.92;100.00;102864.04;216641;1299;111127;-86
2023/01/23 19:58:29;;;;;;;101.60;46.40;;;;;;;0.86;100.00;102861.69;216728;1298;111264;-86
2023/01/23 20:04:29;;;;;;;84.30;38.70;;;;;;;0.87;100.00;102857.53;216495;1298;138617;-85
2023/01/23 20:10:30;;;;;;;84.40;37.50;;;;;;;0.87;100.00;102859.21;216292;1298;139422;-85
2023/01/23 20:16:32;;;;;;;70.50;32.80;;;;;;;0.84;100.00;102861.13;216822;1298;111228;-84
2023/01/23 20:22:24;;;;;;;73.10;31.60;;;;;;;0.83;100.00;102861.17;216114;1298;139134;-85
2023/01/23 20:28:25;;;;;;;79.20;36.90;;;;;;;0.85;100.00;102868.67;216692;1298;140359;-85
2023/01/23 20:34:26;;;;;;;66.80;28.90;;;;;;;0.82;100.00;102871.63;216115;1299;138979;-85
2023/01/23 20:40:40;;;;;;;67.60;29.90;;;;;;;0.82;100.00;102872.98;215949;1299;139305;-85
2023/01/23 20:46:35;;;;;;;72.00;30.10;;;;;;;0.84;100.00;102873.98;216722;1299;138526;-85
2023/01/23 21:04:40;;;;;;;77.90;34.30;;;;;;;0.84;100.00;102876.52;216682;1298;247440;-85
2023/01/23 21:11:04;;;;;;;73.30;31.00;;;;;;;0.81;100.00;102880.77;216106;1299;138970;-86
2023/01/23 21:16:55;;;;;;;61.60;29.40;;;;;;;0.82;100.00;102875.20;216740;1299;241614;-86
2023/01/23 21:23:18;;;;;;;66.10;29.90;;;;;;;0.80;100.00;102882.22;215922;1299;139428;-85
2023/01/23 21:29:01;;;;;;;70.00;33.90;;;;;;;0.76;100.00;102881.72;216611;1299;107130;-85
2023/01/23 21:41:01;;;;;;;;;;;;;;;;;;;;;
2023/01/23 21:47:04;;;;;;;77.50;33.70;;;;;;;0.76;100.00;102896.43;216302;1299;139427;-85
2023/01/23 21:52:57;;;;;;;;;;;;;;;;;;;;;
2023/01/23 21:59:09;;;;;;;69.20;30.70;;;;;;;0.81;100.00;102891.83;216219;1298;138908;-85
2023/01/23 22:05:10;;;;;;;66.40;30.70;;;;;;;0.83;100.00;102897.06;216703;1298;138834;-86
2023/01/23 22:11:12;;;;;;;66.00;29.80;;;;;;;0.81;100.00;102900.44;216204;1298;139277;-86
2023/01/23 22:17:13;;;;;;;60.80;29.80;;;;;;;0.80;100.00;102900.50;216720;1298;139622;-85
2023/01/23 22:23:14;;;;;;;62.40;29.40;;;;;;;0.79;100.00;102903.03;216239;1299;138889;-84
2023/01/23 22:29:13;;;;;;;;;;;;;;;;;;;;;
2023/01/23 22:35:15;;;;;;;74.60;32.70;;;;;;;0.80;100.00;102904.02;216838;1298;96253;-86
2023/01/23 22:41:17;;;;;;;67.20;29.80;;;;;;;0.83;100.00;102894.63;216005;1299;139978;-86
2023/01/23 22:47:18;;;;;;;71.70;30.50;;;;;;;0.83;100.00;102888.65;216538;1299;139361;-85
2023/01/23 22:53:42;;;;;;;67.60;31.80;;;;;;;0.79;100.00;102882.00;216093;1299;140009;-89
2023/01/23 22:59:25;;;;;;;70.00;31.90;;;;;;;0.78;100.00;102880.59;216325;1300;140761;-90
2023/01/23 23:05:26;;;;;;;69.40;32.20;;;;;;;0.75;100.00;102883.63;217015;1298;96178;-90
2023/01/23 23:11:16;;;;;;;;;;;;;;;;;;;;;
2023/01/23 23:17:29;;;;;;;61.80;29.00;;;;;;;0.71;100.00;102881.30;216670;1299;139054;-89
2023/01/23 23:23:23;;;;;;;62.90;30.30;;;;;;;0.70;100.00;102878.14;216251;1299;140392;-89
2023/01/23 23:29:25;;;;;;;64.40;31.80;;;;;;;0.69;100.00;102870.77;216205;1298;139134;-87
2023/01/23 23:35:26;;;;;;;62.80;30.90;;;;;;;0.66;100.00;102863.94;216798;1299;139141;-88
2023/01/23 23:41:36;;;;;;;64.20;29.10;;;;;;;0.64;100.00;102866.64;216052;1298;139280;-88
2023/01/23 23:47:39;;;;;;;58.60;27.20;;;;;;;0.68;100.00;102867.86;216798;1299;97479;-88
2023/01/23 23:53:40;;;;;;;65.50;29.40;;;;;;;0.70;100.00;102867.90;216244;1300;138991;-89
2023/01/23 23:59:38;;;;;;;;;;;;;;;;;;;;;
